Time;durP1;ratioP1;P1;durP2;ratioP2;P2;SDS_P1;SDS_P2;PMS_P1;PMS_P2;Temp;Humidity;BMP_temperature;BMP_pressure;BME280_temperature;BME280_humidity;BME280_pressure;Samples;Min_cycle;Max_cycle;Signal;HPM_P1;HPM_P2
2021/07/07 00:01:34;;;;;;;3.53;1.37;;;24.90;59.60;;;;;;5021897;28;20194;-48
2021/07/07 00:03:59;;;;;;;1.47;1.30;;;24.90;59.80;;;;;;5031837;28;20200;-50
2021/07/07 00:06:25;;;;;;;2.80;2.03;;;25.00;59.70;;;;;;5023173;28;20445;-46
2021/07/07 00:08:50;;;;;;;1.60;1.50;;;24.90;59.00;;;;;;5022301;28;20193;-46
2021/07/07 00:11:17;;;;;;;3.70;1.30;;;24.90;59.40;;;;;;5017666;28;20193;-48
2021/07/07 00:13:42;;;;;;;6.90;1.17;;;24.90;59.60;;;;;;5018297;28;20206;-47
2021/07/07 00:16:08;;;;;;;2.80;1.67;;;24.80;60.10;;;;;;5027539;28;20439;-51
2021/07/07 00:18:34;;;;;;;2.63;1.70;;;24.80;60.80;;;;;;5027151;28;20200;-47
2021/07/07 00:21:00;;;;;;;1.60;1.50;;;24.80;59.90;;;;;;5026336;28;20202;-46
2021/07/07 00:23:28;;;;;;;3.50;1.50;;;24.90;59.70;;;;;;5027561;28;20617;-48
2021/07/07 00:25:54;;;;;;;3.33;1.70;;;24.90;59.40;;;;;;5024899;28;20790;-49
2021/07/07 00:28:21;;;;;;;3.43;1.73;;;24.90;59.50;;;;;;5027539;28;20537;-50
2021/07/07 00:30:47;;;;;;;2.83;1.63;;;24.90;59.50;;;;;;5026737;28;20181;-47
2021/07/07 00:33:14;;;;;;;3.13;1.57;;;24.90;59.40;;;;;;5024795;28;20910;-50
2021/07/07 00:35:40;;;;;;;1.73;1.63;;;24.90;59.60;;;;;;5026594;28;20448;-47
2021/07/07 00:38:06;;;;;;;2.00;1.60;;;24.90;59.40;;;;;;5028697;28;20436;-46
2021/07/07 00:40:32;;;;;;;1.60;1.50;;;24.80;59.50;;;;;;5027358;28;20576;-47
2021/07/07 00:42:57;;;;;;;1.73;1.60;;;24.80;59.40;;;;;;5021936;28;20229;-52
2021/07/07 00:45:23;;;;;;;1.80;1.70;;;24.80;59.50;;;;;;5032681;28;20533;-47
2021/07/07 00:47:49;;;;;;;1.70;1.60;;;24.80;59.40;;;;;;5013030;28;20197;-49
2021/07/07 00:50:17;;;;;;;1.50;1.40;;;24.80;59.50;;;;;;5024678;28;20531;-51
2021/07/07 00:52:43;;;;;;;2.13;1.53;;;24.80;59.50;;;;;;5015765;28;20198;-47
2021/07/07 00:55:11;;;;;;;1.47;1.23;;;24.80;59.50;;;;;;5025965;28;20458;-49
2021/07/07 00:57:37;;;;;;;1.43;1.33;;;24.80;59.50;;;;;;5028482;28;20454;-47
2021/07/07 01:00:08;;;;;;;1.80;1.70;;;24.80;59.50;;;;;;5025878;28;20435;-47
2021/07/07 01:02:37;;;;;;;3.13;1.50;;;24.80;59.30;;;;;;5024838;28;20490;-46
2021/07/07 01:05:07;;;;;;;1.83;1.40;;;24.80;59.50;;;;;;5025448;28;20888;-47
2021/07/07 01:07:33;;;;;;;1.73;1.47;;;24.80;59.70;;;;;;5028134;28;20454;-47
2021/07/07 01:09:59;;;;;;;1.83;1.73;;;24.70;59.60;;;;;;5024972;28;20522;-52
2021/07/07 01:12:26;;;;;;;1.50;1.40;;;24.70;59.70;;;;;;5026035;28;20288;-48
2021/07/07 01:14:53;;;;;;;1.80;1.60;;;24.70;60.00;;;;;;5029061;28;20189;-47
2021/07/07 01:17:19;;;;;;;1.40;1.30;;;24.70;59.90;;;;;;5023031;28;20559;-47
2021/07/07 01:19:46;;;;;;;5.90;1.70;;;24.70;59.90;;;;;;5019437;28;20490;-48
2021/07/07 01:22:11;;;;;;;2.37;1.70;;;24.70;59.90;;;;;;5026004;28;20515;-53
2021/07/07 01:24:37;;;;;;;1.90;1.70;;;24.70;60.00;;;;;;5023734;28;20924;-47
2021/07/07 01:27:04;;;;;;;2.20;1.60;;;24.70;60.10;;;;;;5029605;28;20186;-49
2021/07/07 01:29:30;;;;;;;3.20;1.80;;;24.70;60.20;;;;;;5021897;28;20189;-50
2021/07/07 01:31:55;;;;;;;4.83;1.60;;;24.60;60.50;;;;;;5023511;28;21055;-46
2021/07/07 01:34:21;;;;;;;2.10;1.63;;;24.60;60.40;;;;;;5025021;28;20448;-47
2021/07/07 01:36:47;;;;;;;1.53;1.43;;;24.60;60.40;;;;;;5022803;28;20262;-47
2021/07/07 01:39:13;;;;;;;1.70;1.60;;;24.50;60.30;;;;;;5026005;28;20198;-46
2021/07/07 01:41:38;;;;;;;1.90;1.70;;;24.50;60.50;;;;;;5020244;28;20273;-47
2021/07/07 01:44:05;;;;;;;1.90;1.60;;;24.50;60.40;;;;;;5024874;28;20229;-46
2021/07/07 01:46:31;;;;;;;1.70;1.60;;;24.50;60.90;;;;;;5029638;28;20236;-47
2021/07/07 01:48:57;;;;;;;3.53;2.37;;;24.40;60.80;;;;;;5022961;28;20460;-47
2021/07/07 01:51:23;;;;;;;2.63;2.43;;;24.40;61.10;;;;;;5022188;28;20189;-46
2021/07/07 01:53:49;;;;;;;2.03;1.90;;;24.40;61.10;;;;;;5021132;28;20197;-46
2021/07/07 01:56:14;;;;;;;1.80;1.70;;;24.40;60.90;;;;;;5028732;28;20379;-46
2021/07/07 01:58:40;;;;;;;2.33;2.13;;;24.30;61.60;;;;;;5025201;28;20522;-51
2021/07/07 02:01:07;;;;;;;3.97;2.07;;;24.20;61.80;;;;;;5021032;28;20273;-47
2021/07/07 02:03:32;;;;;;;1.80;1.70;;;24.10;61.80;;;;;;5026259;28;20225;-47
2021/07/07 02:05:58;;;;;;;2.27;1.90;;;24.10;62.10;;;;;;5021464;28;20444;-48
2021/07/07 02:08:23;;;;;;;2.57;2.10;;;24.10;62.00;;;;;;5024292;28;20197;-47
2021/07/07 02:10:49;;;;;;;2.60;1.53;;;24.00;61.80;;;;;;5025819;28;20240;-46
2021/07/07 02:13:15;;;;;;;2.47;1.73;;;24.00;61.40;;;;;;5024332;28;20193;-48
2021/07/07 02:15:41;;;;;;;2.20;1.80;;;24.00;61.90;;;;;;5027767;28;20684;-47
2021/07/07 02:18:08;;;;;;;2.43;1.80;;;23.70;62.00;;;;;;5029581;28;20233;-50
2021/07/07 02:20:40;;;;;;;6.87;1.90;;;23.70;62.80;;;;;;5024520;28;20445;-47
2021/07/07 02:23:06;;;;;;;4.40;1.93;;;23.80;62.60;;;;;;5024856;28;20506;-52
2021/07/07 02:25:34;;;;;;;2.47;2.00;;;23.90;62.40;;;;;;5021588;28;20862;-49
2021/07/07 02:28:00;;;;;;;6.20;2.27;;;24.00;62.30;;;;;;5012677;28;20441;-48
2021/07/07 02:30:30;;;;;;;3.63;1.90;;;24.00;62.40;;;;;;5028508;28;20436;-51
2021/07/07 02:32:56;;;;;;;2.20;1.93;;;24.10;62.30;;;;;;5026310;28;20444;-48
2021/07/07 02:35:24;;;;;;;4.57;2.00;;;24.10;62.10;;;;;;5024892;28;20447;-50
2021/07/07 02:37:53;;;;;;;4.23;1.67;;;24.10;62.50;;;;;;5023660;28;20533;-50
2021/07/07 02:40:19;;;;;;;1.70;1.60;;;24.10;62.30;;;;;;5021659;28;20881;-52
2021/07/07 02:42:45;;;;;;;2.30;2.10;;;24.10;62.30;;;;;;5022957;28;20535;-51
2021/07/07 02:45:14;;;;;;;1.57;1.47;;;24.10;62.30;;;;;;5020719;28;20468;-51
2021/07/07 02:47:41;;;;;;;1.60;1.50;;;24.10;62.10;;;;;;5025465;28;20491;-46
2021/07/07 02:50:09;;;;;;;1.73;1.40;;;24.20;62.20;;;;;;5028946;28;20431;-50
2021/07/07 02:52:35;;;;;;;4.00;1.80;;;24.20;62.10;;;;;;5015824;28;21046;-47
2021/07/07 02:55:00;;;;;;;1.73;1.63;;;24.20;62.10;;;;;;5023929;28;20547;-47
2021/07/07 02:57:26;;;;;;;1.83;1.73;;;24.20;62.00;;;;;;5025949;28;20277;-52
2021/07/07 02:59:51;;;;;;;2.70;2.50;;;24.30;61.70;;;;;;5020104;28;20185;-50
2021/07/07 03:02:17;;;;;;;3.93;1.90;;;24.20;61.70;;;;;;5024368;28;20602;-48
2021/07/07 03:04:42;;;;;;;3.47;2.43;;;24.10;62.00;;;;;;5026296;28;20255;-47
2021/07/07 03:07:08;;;;;;;1.73;1.40;;;24.00;62.40;;;;;;5021868;28;20192;-46
2021/07/07 03:09:34;;;;;;;2.50;2.30;;;24.00;62.90;;;;;;5026215;28;20197;-47
2021/07/07 03:12:00;;;;;;;1.87;1.67;;;24.00;63.10;;;;;;5032179;28;20202;-48
2021/07/07 03:14:25;;;;;;;1.70;1.60;;;24.00;63.00;;;;;;5027819;28;20627;-46
2021/07/07 03:16:51;;;;;;;2.33;2.13;;;24.00;63.00;;;;;;5028426;28;20604;-46
2021/07/07 03:19:16;;;;;;;2.90;1.87;;;24.10;62.90;;;;;;5030399;28;20228;-47
2021/07/07 03:21:42;;;;;;;2.20;1.70;;;24.10;62.60;;;;;;5029707;28;20202;-46
2021/07/07 03:24:10;;;;;;;2.57;1.90;;;24.20;62.50;;;;;;5030140;28;20228;-47
2021/07/07 03:26:36;;;;;;;1.87;1.67;;;24.20;62.20;;;;;;5030317;28;20229;-50
2021/07/07 03:29:01;;;;;;;2.30;2.20;;;24.30;62.10;;;;;;5027265;28;20452;-47
2021/07/07 03:31:27;;;;;;;2.40;2.20;;;24.30;62.10;;;;;;5022818;28;20454;-46
2021/07/07 03:33:53;;;;;;;2.20;1.87;;;24.30;61.90;;;;;;5030608;28;20688;-51
2021/07/07 03:36:19;;;;;;;5.10;1.80;;;24.30;61.80;;;;;;5030492;28;20190;-47
2021/07/07 03:38:45;;;;;;;4.70;2.70;;;24.30;61.90;;;;;;5027143;28;20280;-49
2021/07/07 03:41:11;;;;;;;2.50;2.30;;;24.30;62.30;;;;;;5029733;28;20458;-50
2021/07/07 03:43:37;;;;;;;2.80;2.50;;;24.20;62.30;;;;;;5032562;28;20491;-47
2021/07/07 03:46:03;;;;;;;3.50;3.20;;;24.00;62.50;;;;;;5029321;28;20239;-51
2021/07/07 03:48:28;;;;;;;3.67;2.47;;;23.80;62.80;;;;;;5026497;28;20201;-52
2021/07/07 03:50:54;;;;;;;3.60;2.87;;;23.70;63.30;;;;;;5021981;28;20204;-49
2021/07/07 03:53:20;;;;;;;3.13;2.93;;;23.60;63.70;;;;;;5030716;28;20220;-51
2021/07/07 03:55:45;;;;;;;3.63;3.33;;;23.50;64.00;;;;;;5027822;28;20252;-47
2021/07/07 03:58:11;;;;;;;3.70;3.03;;;23.40;64.50;;;;;;5024825;28;20611;-49
2021/07/07 04:00:36;;;;;;;3.30;2.93;;;23.20;65.60;;;;;;5027839;28;20197;-47
2021/07/07 04:03:02;;;;;;;6.37;3.27;;;23.00;66.20;;;;;;5021147;28;20226;-47
2021/07/07 04:05:28;;;;;;;4.13;2.87;;;22.90;66.70;;;;;;5028596;28;20197;-46
2021/07/07 04:07:55;;;;;;;2.30;2.10;;;22.90;66.90;;;;;;5028598;28;20668;-48
2021/07/07 04:10:21;;;;;;;2.60;2.40;;;22.70;66.40;;;;;;5024924;28;20208;-48
2021/07/07 04:12:49;;;;;;;2.33;2.13;;;22.70;66.50;;;;;;5022112;28;20986;-52
2021/07/07 04:15:15;;;;;;;3.13;1.93;;;22.70;66.50;;;;;;5030007;28;20947;-48
2021/07/07 04:17:42;;;;;;;2.17;1.90;;;22.70;66.40;;;;;;5026058;28;20483;-49
2021/07/07 04:20:10;;;;;;;2.50;1.90;;;22.80;66.30;;;;;;5027205;28;20474;-47
2021/07/07 04:22:37;;;;;;;1.97;1.87;;;22.80;66.00;;;;;;5028508;28;21290;-48
2021/07/07 04:25:06;;;;;;;4.73;1.80;;;22.80;65.90;;;;;;5029518;28;20788;-47
2021/07/07 04:27:31;;;;;;;5.10;3.30;;;22.80;66.00;;;;;;5018573;28;20509;-50
2021/07/07 04:29:57;;;;;;;4.63;2.83;;;22.70;66.40;;;;;;5026866;28;20440;-48
2021/07/07 04:32:22;;;;;;;2.47;2.27;;;22.70;66.60;;;;;;5026438;28;20205;-47
2021/07/07 04:34:50;;;;;;;2.17;1.70;;;22.70;66.50;;;;;;5023949;28;20194;-48
2021/07/07 04:37:15;;;;;;;2.47;1.73;;;22.60;66.40;;;;;;5028205;28;20559;-47
2021/07/07 04:39:41;;;;;;;3.40;1.80;;;22.70;66.50;;;;;;5024631;28;20440;-49
2021/07/07 04:42:07;;;;;;;2.50;1.37;;;22.60;66.30;;;;;;5026394;28;20225;-46
2021/07/07 04:44:32;;;;;;;2.77;1.63;;;22.60;66.50;;;;;;5024030;28;20197;-47
2021/07/07 04:46:59;;;;;;;2.20;1.77;;;22.60;66.50;;;;;;5027990;28;20641;-47
2021/07/07 04:49:25;;;;;;;1.97;1.40;;;22.60;66.50;;;;;;5029484;28;20232;-47
2021/07/07 04:51:51;;;;;;;2.30;1.60;;;22.60;66.60;;;;;;5022470;28;20517;-47
2021/07/07 04:54:16;;;;;;;2.23;1.60;;;22.60;66.90;;;;;;5025173;28;20440;-47
2021/07/07 04:56:44;;;;;;;3.80;2.00;;;22.70;67.20;;;;;;5030160;28;20205;-47
2021/07/07 04:59:10;;;;;;;2.20;1.70;;;22.60;67.30;;;;;;5026133;28;20653;-47
2021/07/07 05:01:37;;;;;;;2.07;1.90;;;22.70;67.30;;;;;;5025634;28;20517;-47
2021/07/07 05:04:02;;;;;;;1.63;1.50;;;22.70;67.10;;;;;;5025725;28;20212;-47
2021/07/07 05:06:29;;;;;;;2.20;2.00;;;22.70;67.00;;;;;;5028208;28;21001;-47
2021/07/07 05:08:54;;;;;;;2.43;1.50;;;22.70;67.10;;;;;;5032195;28;20228;-49
2021/07/07 05:11:20;;;;;;;1.90;1.80;;;22.60;66.90;;;;;;5027768;28;20443;-46
2021/07/07 05:13:46;;;;;;;1.70;1.60;;;22.60;67.20;;;;;;5022639;28;20209;-48
2021/07/07 05:16:12;;;;;;;3.90;2.87;;;22.60;67.40;;;;;;5025950;28;20201;-47
2021/07/07 05:18:38;;;;;;;4.03;1.93;;;22.60;67.80;;;;;;5030169;28;20194;-48
2021/07/07 05:21:03;;;;;;;2.40;2.20;;;22.40;68.50;;;;;;5023326;28;20838;-48
2021/07/07 05:23:33;;;;;;;5.03;2.30;;;22.50;68.80;;;;;;5027150;28;20235;-46
2021/07/07 05:25:58;;;;;;;4.87;2.10;;;22.40;68.50;;;;;;5019694;28;20201;-47
2021/07/07 05:28:24;;;;;;;3.03;2.40;;;22.50;68.50;;;;;;5014421;28;20447;-52
2021/07/07 05:30:50;;;;;;;4.10;2.40;;;22.60;68.60;;;;;;5018370;28;20333;-51
2021/07/07 05:33:15;;;;;;;3.83;1.73;;;22.70;68.40;;;;;;5026249;28;20195;-47
2021/07/07 05:35:41;;;;;;;2.63;2.43;;;22.70;68.10;;;;;;5025187;28;20197;-50
2021/07/07 05:38:07;;;;;;;6.83;2.40;;;22.70;68.20;;;;;;5028843;28;20189;-46
2021/07/07 05:40:32;;;;;;;3.23;2.60;;;22.70;68.00;;;;;;5018339;28;20193;-52
2021/07/07 05:42:58;;;;;;;2.80;2.13;;;22.70;67.80;;;;;;5025706;28;20274;-52
2021/07/07 05:45:26;;;;;;;2.93;2.40;;;22.80;67.80;;;;;;5019359;28;20437;-50
2021/07/07 05:47:52;;;;;;;5.00;2.40;;;22.90;67.50;;;;;;5019054;28;20189;-52
2021/07/07 05:50:19;;;;;;;3.40;2.10;;;22.80;67.60;;;;;;5015406;28;20448;-51
2021/07/07 05:52:45;;;;;;;2.90;2.70;;;22.70;68.30;;;;;;5019933;28;20429;-51
2021/07/07 05:55:11;;;;;;;2.90;2.60;;;22.70;68.40;;;;;;5020222;28;20447;-48
2021/07/07 05:57:37;;;;;;;3.73;2.70;;;22.70;68.20;;;;;;5019034;28;20707;-48
2021/07/07 06:00:12;;;;;;;2.53;1.87;;;22.70;68.10;;;;;;5023327;28;20436;-51
2021/07/07 06:02:39;;;;;;;4.00;2.00;;;22.80;68.20;;;;;;5023889;28;20225;-50
2021/07/07 06:05:07;;;;;;;5.60;2.37;;;22.80;67.90;;;;;;5015603;28;20428;-50
2021/07/07 06:07:33;;;;;;;5.43;2.43;;;22.70;67.70;;;;;;5022764;28;20440;-47
2021/07/07 06:09:59;;;;;;;4.33;2.70;;;22.70;68.10;;;;;;5017470;28;21019;-51
2021/07/07 06:12:25;;;;;;;2.63;2.43;;;22.70;68.00;;;;;;5022926;28;20460;-51
2021/07/07 06:14:50;;;;;;;3.17;2.70;;;22.80;68.00;;;;;;5015971;28;20197;-49
2021/07/07 06:17:16;;;;;;;3.80;3.40;;;22.80;67.80;;;;;;5025432;28;20230;-46
2021/07/07 06:19:42;;;;;;;3.30;2.70;;;22.90;67.90;;;;;;5027562;28;20194;-50
2021/07/07 06:22:07;;;;;;;3.70;2.50;;;22.90;67.70;;;;;;5019613;28;20312;-51
2021/07/07 06:24:33;;;;;;;2.53;2.20;;;22.60;67.80;;;;;;5023523;28;20190;-49
2021/07/07 06:26:58;;;;;;;2.40;2.20;;;22.60;68.50;;;;;;5013615;28;20276;-49
2021/07/07 06:29:24;;;;;;;3.50;2.00;;;22.50;68.10;;;;;;5020344;28;20189;-50
2021/07/07 06:31:50;;;;;;;3.63;2.20;;;22.60;67.90;;;;;;5022772;28;20830;-50
2021/07/07 06:34:15;;;;;;;4.60;2.50;;;22.60;67.90;;;;;;5029192;28;20280;-52
2021/07/07 06:36:41;;;;;;;3.37;2.20;;;22.60;67.70;;;;;;5020942;28;20208;-49
2021/07/07 06:39:06;;;;;;;4.90;2.40;;;22.70;67.60;;;;;;5027634;28;20239;-52
2021/07/07 06:41:33;;;;;;;2.93;2.60;;;22.80;67.10;;;;;;5017156;28;20197;-46
2021/07/07 06:43:59;;;;;;;3.83;2.40;;;22.90;67.10;;;;;;5021015;28;20227;-49
2021/07/07 06:46:24;;;;;;;1.93;1.70;;;22.80;66.50;;;;;;5022342;28;20431;-47
2021/07/07 06:48:50;;;;;;;3.40;2.03;;;22.60;68.10;;;;;;5020843;28;20437;-47
2021/07/07 06:51:16;;;;;;;2.20;2.00;;;22.50;68.00;;;;;;5034013;28;20670;-48
2021/07/07 06:53:41;;;;;;;2.10;1.73;;;22.70;67.90;;;;;;5029098;28;20270;-53
2021/07/07 06:56:07;;;;;;;10.63;2.23;;;22.70;67.30;;;;;;5027982;28;20327;-50
2021/07/07 06:58:32;;;;;;;21.33;4.50;;;22.60;68.50;;;;;;5020065;28;20201;-50
2021/07/07 07:00:58;;;;;;;9.67;2.57;;;22.90;67.50;;;;;;5023879;28;20272;-51
2021/07/07 07:03:24;;;;;;;19.50;2.60;;;23.10;67.00;;;;;;5024767;28;20252;-51
2021/07/07 07:05:50;;;;;;;16.20;3.30;;;23.30;67.00;;;;;;5020032;28;20587;-51
2021/07/07 07:08:18;;;;;;;2.20;1.50;;;23.60;65.60;;;;;;5022540;28;20209;-51
2021/07/07 07:10:43;;;;;;;2.43;1.40;;;23.90;64.00;;;;;;5022874;28;20443;-48
2021/07/07 07:13:09;;;;;;;1.70;1.60;;;24.10;61.80;;;;;;5030586;28;20927;-47
2021/07/07 07:15:35;;;;;;;1.60;1.40;;;24.10;60.90;;;;;;5021881;28;20274;-53
2021/07/07 07:18:00;;;;;;;2.03;1.70;;;24.10;60.80;;;;;;5025071;28;20237;-51
2021/07/07 07:20:29;;;;;;;2.30;1.70;;;24.00;61.10;;;;;;5025367;28;20186;-47
2021/07/07 07:22:56;;;;;;;2.57;1.20;;;23.90;61.90;;;;;;5027815;28;20221;-50
2021/07/07 07:25:22;;;;;;;3.67;1.63;;;23.70;61.50;;;;;;5020511;28;20425;-53
2021/07/07 07:27:48;;;;;;;2.10;1.90;;;23.60;61.70;;;;;;5023873;28;20434;-52
2021/07/07 07:30:14;;;;;;;1.80;1.70;;;23.60;62.30;;;;;;5021021;28;20189;-46
2021/07/07 07:32:40;;;;;;;4.60;1.80;;;23.50;62.40;;;;;;5020759;28;20620;-49
2021/07/07 07:35:06;;;;;;;1.63;1.53;;;23.40;62.60;;;;;;5028377;28;20540;-47
2021/07/07 07:38:09;;;;;;;2.30;1.60;;;23.30;62.90;;;;;;5029202;28;20649;-47
2021/07/07 07:40:31;;;;;;;3.60;1.50;;;22.80;63.40;;;;;;5030161;28;20441;-49
2021/07/07 07:42:57;;;;;;;2.87;1.43;;;22.70;65.70;;;;;;5025915;28;20637;-48
2021/07/07 07:45:23;;;;;;;2.50;1.57;;;22.80;66.20;;;;;;5033960;28;20875;-46
2021/07/07 07:47:49;;;;;;;2.20;2.00;;;22.90;66.40;;;;;;5029784;28;20263;-46
2021/07/07 07:50:17;;;;;;;3.33;1.83;;;23.00;65.70;;;;;;5024315;28;20327;-46
2021/07/07 07:52:43;;;;;;;2.47;2.30;;;23.10;65.20;;;;;;5022890;28;20440;-45
2021/07/07 07:55:10;;;;;;;1.97;1.77;;;23.10;64.40;;;;;;5032022;28;20466;-46
2021/07/07 07:57:37;;;;;;;2.13;1.77;;;23.20;64.50;;;;;;5019245;28;20451;-51
2021/07/07 08:00:09;;;;;;;2.10;1.83;;;23.30;64.80;;;;;;5022160;28;20444;-51
2021/07/07 08:02:35;;;;;;;1.83;1.73;;;23.30;64.20;;;;;;5032278;28;20849;-51
2021/07/07 08:05:01;;;;;;;2.07;1.80;;;23.30;64.40;;;;;;5030673;28;20458;-46
2021/07/07 08:07:29;;;;;;;3.40;1.90;;;23.40;64.70;;;;;;5021773;28;20201;-49
2021/07/07 08:09:56;;;;;;;2.50;1.83;;;23.30;65.20;;;;;;5032537;28;20201;-50
2021/07/07 08:12:22;;;;;;;2.83;1.80;;;23.30;65.10;;;;;;5033159;28;20456;-52
2021/07/07 08:14:50;;;;;;;2.50;2.00;;;23.30;65.50;;;;;;5027738;28;20459;-49
2021/07/07 08:17:20;;;;;;;2.00;1.87;;;23.30;65.40;;;;;;5029613;28;20524;-51
2021/07/07 08:19:46;;;;;;;2.47;1.97;;;23.20;65.30;;;;;;5018989;28;20443;-49
2021/07/07 08:22:12;;;;;;;1.70;1.60;;;23.30;64.80;;;;;;5020453;28;20464;-46
2021/07/07 08:24:37;;;;;;;1.63;1.53;;;23.20;64.50;;;;;;5019800;28;20440;-50
2021/07/07 08:27:03;;;;;;;2.67;1.67;;;23.10;63.70;;;;;;5024105;28;20204;-50
2021/07/07 08:29:29;;;;;;;3.00;1.70;;;23.00;63.90;;;;;;5026609;28;20558;-49
2021/07/07 08:31:55;;;;;;;4.17;1.50;;;22.90;64.00;;;;;;5023612;28;20432;-49
2021/07/07 08:34:20;;;;;;;2.87;2.10;;;23.00;64.10;;;;;;5021141;28;20197;-48
2021/07/07 08:36:46;;;;;;;3.50;1.80;;;23.00;64.20;;;;;;5015711;28;20210;-48
2021/07/07 08:39:12;;;;;;;5.63;1.67;;;23.00;65.10;;;;;;5027481;28;20655;-50
2021/07/07 08:41:39;;;;;;;4.70;2.00;;;22.90;65.90;;;;;;5023062;28;20201;-48
2021/07/07 08:44:07;;;;;;;4.83;1.70;;;22.60;66.80;;;;;;5027835;28;20623;-53
2021/07/07 08:46:33;;;;;;;4.80;1.60;;;22.50;69.50;;;;;;5024640;28;20433;-48
2021/07/07 08:48:59;;;;;;;3.90;1.70;;;22.70;69.10;;;;;;5023340;28;20947;-52
2021/07/07 08:51:24;;;;;;;3.43;1.60;;;22.90;68.40;;;;;;5019788;28;20439;-50
2021/07/07 08:53:50;;;;;;;2.10;1.57;;;23.20;67.70;;;;;;5022568;28;20199;-53
2021/07/07 08:56:16;;;;;;;2.10;1.60;;;23.50;66.10;;;;;;5027479;28;20193;-52
2021/07/07 08:58:41;;;;;;;3.03;1.33;;;23.60;65.40;;;;;;5026946;28;20223;-54
2021/07/07 09:01:07;;;;;;;3.93;1.50;;;23.90;65.10;;;;;;5029400;28;20201;-50
2021/07/07 09:03:33;;;;;;;2.33;1.50;;;23.90;64.30;;;;;;5026340;28;20232;-51
2021/07/07 09:06:04;;;;;;;3.87;1.50;;;24.10;63.10;;;;;;5028126;28;20260;-51
2021/07/07 09:08:32;;;;;;;2.13;1.70;;;24.20;61.70;;;;;;5019486;28;20200;-51
2021/07/07 09:11:19;;;;;;;4.20;1.90;;;24.20;62.00;;;;;;5025679;28;20792;-51
2021/07/07 09:13:47;;;;;;;6.63;2.00;;;24.20;63.00;;;;;;5023842;28;20544;-53
2021/07/07 09:16:16;;;;;;;2.53;1.73;;;24.50;62.30;;;;;;5027679;28;20441;-51
2021/07/07 09:18:42;;;;;;;2.17;1.77;;;24.70;60.50;;;;;;5022818;28;20429;-50
2021/07/07 09:21:50;;;;;;;2.03;1.83;;;24.80;60.90;;;;;;5012547;28;20528;-51
2021/07/07 09:24:23;;;;;;;1.33;1.20;;;24.90;59.90;;;;;;5024124;28;20940;-51
2021/07/07 09:27:06;;;;;;;2.00;1.67;;;25.00;60.20;;;;;;5026001;28;20502;-51
2021/07/07 09:29:51;;;;;;;2.50;1.80;;;25.10;58.60;;;;;;5021490;28;20455;-48
2021/07/07 09:32:23;;;;;;;2.10;1.37;;;25.10;59.80;;;;;;5030857;28;20444;-53
2021/07/07 09:34:51;;;;;;;1.70;1.60;;;25.20;59.90;;;;;;5023003;28;20970;-49
2021/07/07 09:37:45;;;;;;;1.70;1.50;;;25.30;60.20;;;;;;5013095;28;20784;-51
2021/07/07 09:40:12;;;;;;;3.27;1.90;;;25.10;59.80;;;;;;5016219;28;20456;-49
2021/07/07 09:42:40;;;;;;;5.73;1.80;;;25.20;59.70;;;;;;5028184;28;20582;-46
2021/07/07 09:45:08;;;;;;;2.50;1.70;;;25.40;59.80;;;;;;5024495;28;20472;-50
2021/07/07 09:47:34;;;;;;;3.60;3.30;;;25.50;59.50;;;;;;5026538;28;20467;-50
2021/07/07 09:50:00;;;;;;;15.20;7.63;;;25.50;59.80;;;;;;5026371;28;20471;-50
2021/07/07 09:52:28;;;;;;;26.07;15.47;;;25.60;59.50;;;;;;5021413;28;20723;-48
2021/07/07 09:54:55;;;;;;;37.53;22.70;;;25.80;59.30;;;;;;5026454;28;20509;-48
2021/07/07 09:57:21;;;;;;;37.73;24.20;;;25.80;59.00;;;;;;5025315;28;20436;-48
2021/07/07 09:59:47;;;;;;;47.07;26.10;;;25.90;58.70;;;;;;5022165;28;20448;-47
2021/07/07 10:02:13;;;;;;;24.87;15.27;;;26.00;58.40;;;;;;5022140;28;20225;-51
2021/07/07 10:04:41;;;;;;;35.27;18.40;;;26.00;58.10;;;;;;5020726;28;20424;-49
2021/07/07 10:07:08;;;;;;;28.37;18.70;;;26.00;58.00;;;;;;5022757;28;20206;-50
2021/07/07 10:09:35;;;;;;;29.33;12.63;;;26.00;57.30;;;;;;5020564;28;20475;-49
2021/07/07 10:12:01;;;;;;;37.80;16.60;;;26.00;57.10;;;;;;5015732;28;21257;-48
2021/07/07 10:14:28;;;;;;;17.80;10.40;;;26.00;57.90;;;;;;5013542;28;20471;-49
2021/07/07 10:16:53;;;;;;;12.07;4.93;;;26.00;57.50;;;;;;5021377;28;20585;-51
2021/07/07 10:19:21;;;;;;;17.67;9.77;;;26.00;57.10;;;;;;5015698;28;20920;-50
2021/07/07 10:21:48;;;;;;;6.53;5.90;;;26.00;57.10;;;;;;5021293;28;20204;-48
2021/07/07 10:24:16;;;;;;;15.40;7.77;;;26.10;56.40;;;;;;5017084;28;20495;-44
2021/07/07 10:26:44;;;;;;;9.80;6.10;;;25.80;57.50;;;;;;5019741;28;20443;-45
2021/07/07 10:29:10;;;;;;;10.23;4.30;;;25.90;57.50;;;;;;5017755;28;20487;-51
2021/07/07 10:31:51;;;;;;;8.83;4.97;;;25.90;57.00;;;;;;5024170;28;20436;-49
2021/07/07 10:34:18;;;;;;;8.47;3.83;;;26.00;55.70;;;;;;5026504;28;21152;-50
2021/07/07 10:36:44;;;;;;;8.33;3.90;;;25.90;55.70;;;;;;5021505;28;20451;-50
2021/07/07 10:39:11;;;;;;;3.33;2.60;;;26.00;56.60;;;;;;5019854;28;20808;-49
2021/07/07 10:41:50;;;;;;;6.73;3.40;;;26.20;56.90;;;;;;5016454;28;20762;-50
2021/07/07 10:44:22;;;;;;;2.43;2.23;;;26.20;56.60;;;;;;5011924;28;20466;-47
2021/07/07 10:46:59;;;;;;;2.67;2.00;;;26.30;55.70;;;;;;5022724;28;20798;-44
2021/07/07 10:49:26;;;;;;;2.47;1.93;;;26.40;55.10;;;;;;5025940;28;20920;-45
2021/07/07 10:51:56;;;;;;;2.80;2.00;;;26.50;55.70;;;;;;5026748;28;20440;-45
2021/07/07 10:54:33;;;;;;;6.40;2.80;;;26.50;53.60;;;;;;5028329;28;20428;-46
2021/07/07 10:57:02;;;;;;;3.47;1.60;;;26.60;54.90;;;;;;5020579;28;20436;-46
2021/07/07 10:59:36;;;;;;;4.43;1.80;;;26.60;54.30;;;;;;5018047;28;20444;-44
2021/07/07 11:02:23;;;;;;;2.97;1.53;;;26.60;54.70;;;;;;5023138;28;20446;-48
2021/07/07 11:04:53;;;;;;;2.20;1.73;;;26.60;53.70;;;;;;5028627;28;21176;-48
2021/07/07 11:07:31;;;;;;;5.73;1.30;;;26.70;54.70;;;;;;5028211;28;20448;-48
2021/07/07 11:10:17;;;;;;;2.30;1.27;;;26.70;53.70;;;;;;5024841;28;20440;-50
2021/07/07 11:12:43;;;;;;;2.90;1.80;;;26.70;53.90;;;;;;5018462;28;20452;-50
2021/07/07 11:15:09;;;;;;;4.80;1.90;;;26.70;54.40;;;;;;5027945;28;20441;-50
2021/07/07 11:17:42;;;;;;;2.90;1.87;;;26.70;54.40;;;;;;5019744;28;20225;-50
2021/07/07 11:20:22;;;;;;;2.30;1.70;;;26.80;55.00;;;;;;5025482;28;20197;-48
2021/07/07 11:22:57;;;;;;;3.40;1.40;;;26.80;54.80;;;;;;5029844;28;20582;-50
2021/07/07 11:25:25;;;;;;;2.03;1.33;;;26.80;54.20;;;;;;5016463;28;20494;-50
2021/07/07 11:27:51;;;;;;;2.13;1.30;;;26.90;53.40;;;;;;5013454;28;20492;-50
2021/07/07 11:30:18;;;;;;;2.47;1.60;;;26.90;53.90;;;;;;5024442;28;20935;-50
2021/07/07 11:32:46;;;;;;;3.00;2.00;;;26.90;53.50;;;;;;5019794;28;20800;-51
2021/07/07 11:35:15;;;;;;;2.77;1.70;;;26.90;53.70;;;;;;5019587;28;20443;-50
2021/07/07 11:37:42;;;;;;;1.47;1.30;;;27.00;54.20;;;;;;5017730;28;20441;-48
2021/07/07 11:40:18;;;;;;;2.80;1.70;;;27.10;54.30;;;;;;5024454;28;20971;-50
2021/07/07 11:42:56;;;;;;;2.27;1.63;;;27.10;54.40;;;;;;5024610;28;20479;-50
2021/07/07 11:45:25;;;;;;;2.50;1.47;;;27.10;53.80;;;;;;5028850;28;20490;-46
2021/07/07 11:47:54;;;;;;;1.70;1.53;;;27.20;54.60;;;;;;5026692;28;20526;-45
2021/07/07 11:50:20;;;;;;;1.47;1.37;;;27.20;54.60;;;;;;5025704;28;20567;-48
2021/07/07 11:53:00;;;;;;;2.43;1.60;;;27.30;54.10;;;;;;5024982;28;20497;-44
2021/07/07 11:55:51;;;;;;;2.57;1.47;;;27.40;53.90;;;;;;5025829;28;20459;-46
2021/07/07 11:58:33;;;;;;;1.80;1.60;;;27.40;53.40;;;;;;5029314;28;20463;-48
2021/07/07 12:01:08;;;;;;;1.60;1.30;;;27.40;53.20;;;;;;5028968;28;20444;-47
2021/07/07 12:03:34;;;;;;;1.30;1.20;;;27.50;53.70;;;;;;5025659;28;20492;-45
2021/07/07 12:06:03;;;;;;;1.90;1.30;;;27.50;53.10;;;;;;5032160;28;20435;-45
2021/07/07 12:08:40;;;;;;;2.10;1.53;;;27.60;53.60;;;;;;5029442;28;20761;-48
2021/07/07 12:11:10;;;;;;;2.80;1.67;;;27.40;53.00;;;;;;5028254;28;20800;-46
2021/07/07 12:13:41;;;;;;;2.27;1.80;;;27.40;54.20;;;;;;5028925;28;20527;-47
2021/07/07 12:16:29;;;;;;;2.10;1.50;;;27.50;52.80;;;;;;5021383;28;20813;-45
2021/07/07 12:19:04;;;;;;;3.43;1.43;;;27.40;53.60;;;;;;5025903;28;20523;-44
2021/07/07 12:21:30;;;;;;;1.83;1.60;;;27.60;54.20;;;;;;5027843;28;20447;-45
2021/07/07 12:23:58;;;;;;;2.10;1.80;;;27.70;53.60;;;;;;5028181;28;20490;-44
2021/07/07 12:26:36;;;;;;;1.90;1.50;;;27.80;53.40;;;;;;5024732;28;20758;-44
2021/07/07 12:29:03;;;;;;;1.50;1.40;;;27.90;53.80;;;;;;5029205;28;20463;-45
2021/07/07 12:31:35;;;;;;;1.73;1.33;;;27.90;53.80;;;;;;5024032;28;20789;-47
2021/07/07 12:34:01;;;;;;;3.17;1.60;;;28.00;54.20;;;;;;5032840;28;20545;-44
2021/07/07 12:36:29;;;;;;;2.27;1.47;;;28.00;53.70;;;;;;5024166;28;20908;-46
2021/07/07 12:38:57;;;;;;;3.13;1.50;;;28.10;53.00;;;;;;5027459;28;20861;-45
2021/07/07 12:41:41;;;;;;;1.50;1.40;;;28.30;53.10;;;;;;5031365;28;20424;-45
2021/07/07 12:44:15;;;;;;;3.60;1.27;;;28.40;53.20;;;;;;5028219;28;20487;-47
2021/07/07 12:47:04;;;;;;;1.50;1.40;;;28.50;52.90;;;;;;5025664;28;20440;-48
2021/07/07 12:49:49;;;;;;;1.63;1.30;;;28.50;52.60;;;;;;5027277;28;20519;-47